createdAt,value
2022-10-24T00:01:22.561Z,100.00
2022-10-24T00:03:50.850Z,100.00
2022-10-24T00:06:20.023Z,100.00
2022-10-24T00:08:48.213Z,100.00
2022-10-24T00:11:23.044Z,100.00
2022-10-24T00:13:51.490Z,100.00
2022-10-24T00:16:20.167Z,100.00
2022-10-24T00:18:48.504Z,100.00
2022-10-24T00:21:16.433Z,100.00
2022-10-24T00:23:44.075Z,100.00
2022-10-24T00:26:12.924Z,100.00
2022-10-24T00:28:41.237Z,100.00
2022-10-24T00:31:13.758Z,100.00
2022-10-24T00:33:41.736Z,100.00
2022-10-24T00:36:14.131Z,100.00
2022-10-24T00:38:41.875Z,100.00
2022-10-24T00:41:09.672Z,100.00
2022-10-24T00:43:37.268Z,100.00
2022-10-24T00:46:05.209Z,100.00
2022-10-24T00:48:56.187Z,100.00
2022-10-24T00:51:31.504Z,100.00
2022-10-24T00:54:05.580Z,100.00
2022-10-24T00:56:40.614Z,100.00
2022-10-24T00:59:10.531Z,100.00
2022-10-24T01:01:39.110Z,100.00
2022-10-24T01:04:08.545Z,100.00
2022-10-24T01:07:03.704Z,100.00
2022-10-24T01:09:49.065Z,100.00
2022-10-24T01:12:54.126Z,100.00
2022-10-24T01:15:27.376Z,100.00
2022-10-24T01:18:18.499Z,100.00
2022-10-24T01:21:34.063Z,100.00
2022-10-24T01:24:43.220Z,100.00
2022-10-24T01:27:26.326Z,100.00
2022-10-24T01:30:04.375Z,100.00
2022-10-24T01:32:52.056Z,100.00
2022-10-24T01:35:45.834Z,100.00
2022-10-24T01:38:53.092Z,100.00
2022-10-24T01:41:24.144Z,100.00
2022-10-24T01:44:03.635Z,100.00
2022-10-24T01:46:36.953Z,100.00
2022-10-24T01:49:11.545Z,100.00
2022-10-24T01:51:42.017Z,100.00
2022-10-24T01:54:11.214Z,100.00
2022-10-24T01:56:38.936Z,100.00
2022-10-24T01:59:30.668Z,100.00
2022-10-24T02:02:11.371Z,100.00
2022-10-24T02:04:48.029Z,100.00
2022-10-24T02:07:19.628Z,100.00
2022-10-24T02:09:52.061Z,100.00
2022-10-24T02:12:22.219Z,100.00
2022-10-24T02:14:58.538Z,100.00
2022-10-24T02:17:26.711Z,100.00
2022-10-24T02:19:55.312Z,100.00
2022-10-24T02:22:45.459Z,100.00
2022-10-24T02:25:20.468Z,100.00
2022-10-24T02:28:04.770Z,100.00
2022-10-24T02:30:38.626Z,100.00
2022-10-24T02:33:06.595Z,100.00
2022-10-24T02:35:37.576Z,100.00
2022-10-24T02:38:19.592Z,100.00
2022-10-24T02:40:49.934Z,100.00
2022-10-24T02:43:20.084Z,100.00
2022-10-24T02:45:48.283Z,100.00
2022-10-24T02:48:20.689Z,100.00
2022-10-24T02:50:49.094Z,100.00
2022-10-24T02:53:20.557Z,100.00
2022-10-24T02:55:48.540Z,100.00
2022-10-24T02:58:16.177Z,100.00
2022-10-24T03:00:44.129Z,100.00
2022-10-24T03:03:11.765Z,100.00
2022-10-24T03:05:39.458Z,100.00
2022-10-24T03:08:07.204Z,100.00
2022-10-24T03:10:34.854Z,100.00
2022-10-24T03:13:02.459Z,100.00
2022-10-24T03:15:30.202Z,100.00
2022-10-24T03:17:57.789Z,100.00
2022-10-24T03:20:25.832Z,100.00
2022-10-24T03:22:53.440Z,100.00
2022-10-24T03:25:21.109Z,100.00
2022-10-24T03:27:48.734Z,100.00
2022-10-24T03:30:16.498Z,100.00
2022-10-24T03:32:44.465Z,100.00
2022-10-24T03:35:14.153Z,100.00
2022-10-24T03:37:42.479Z,100.00
2022-10-24T03:40:11.326Z,100.00
2022-10-24T03:42:39.349Z,100.00
2022-10-24T03:45:07.799Z,100.00
2022-10-24T03:47:35.397Z,100.00
2022-10-24T03:50:03.069Z,100.00
2022-10-24T03:52:30.707Z,100.00
2022-10-24T03:54:58.297Z,100.00
2022-10-24T03:57:25.959Z,100.00
2022-10-24T03:59:53.586Z,100.00
2022-10-24T04:02:21.442Z,100.00
2022-10-24T04:04:49.072Z,100.00
2022-10-24T04:07:16.751Z,100.00
2022-10-24T04:09:44.461Z,100.00
2022-10-24T04:12:12.082Z,100.00
2022-10-24T04:14:39.808Z,100.00
2022-10-24T04:17:07.478Z,100.00
2022-10-24T04:19:35.366Z,100.00
2022-10-24T04:22:03.007Z,100.00
2022-10-24T04:24:30.752Z,100.00
2022-10-24T04:26:58.477Z,100.00
2022-10-24T04:29:26.087Z,100.00
2022-10-24T04:31:53.782Z,100.00
2022-10-24T04:34:21.491Z,100.00
2022-10-24T04:36:49.068Z,100.00
2022-10-24T04:39:16.918Z,100.00
2022-10-24T04:41:44.512Z,100.00
2022-10-24T04:44:12.345Z,100.00
2022-10-24T04:46:40.194Z,100.00
2022-10-24T04:49:07.870Z,100.00
2022-10-24T04:51:35.433Z,100.00
2022-10-24T04:54:03.119Z,100.00
2022-10-24T04:56:30.781Z,100.00
2022-10-24T04:58:58.429Z,100.00
2022-10-24T05:01:26.259Z,100.00
2022-10-24T05:03:54.143Z,100.00
2022-10-24T05:06:21.827Z,100.00
2022-10-24T05:08:49.471Z,100.00
2022-10-24T05:11:17.141Z,100.00
2022-10-24T05:13:44.831Z,100.00
2022-10-24T05:16:12.447Z,100.00
2022-10-24T05:18:40.128Z,100.00
2022-10-24T05:21:07.768Z,100.00
2022-10-24T05:23:35.457Z,100.00
2022-10-24T05:26:03.112Z,100.00
2022-10-24T05:28:30.755Z,100.00
2022-10-24T05:30:58.508Z,100.00
2022-10-24T05:33:26.184Z,100.00
2022-10-24T05:35:54.799Z,100.00
2022-10-24T05:38:22.408Z,100.00
2022-10-24T05:40:50.400Z,100.00
2022-10-24T05:43:18.545Z,100.00
2022-10-24T05:45:48.576Z,100.00
2022-10-24T05:48:17.047Z,100.00
2022-10-24T05:50:44.699Z,100.00
2022-10-24T05:53:14.081Z,100.00
2022-10-24T05:55:41.738Z,100.00
2022-10-24T05:58:09.405Z,100.00
2022-10-24T06:00:37.199Z,100.00
2022-10-24T06:03:04.808Z,100.00
2022-10-24T06:05:32.431Z,100.00
2022-10-24T06:08:00.914Z,100.00
2022-10-24T06:10:28.636Z,100.00
2022-10-24T06:12:56.274Z,100.00
2022-10-24T06:15:24.188Z,100.00
2022-10-24T06:17:52.134Z,100.00
2022-10-24T06:20:20.102Z,100.00
2022-10-24T06:22:50.121Z,100.00
2022-10-24T06:25:18.516Z,100.00
2022-10-24T06:27:46.377Z,100.00
2022-10-24T06:30:14.132Z,100.00
2022-10-24T06:32:44.501Z,100.00
2022-10-24T06:35:14.492Z,100.00
2022-10-24T06:37:45.719Z,100.00
2022-10-24T06:40:15.713Z,100.00
2022-10-24T06:42:43.355Z,100.00
2022-10-24T06:45:11.412Z,100.00
2022-10-24T06:47:39.135Z,100.00
2022-10-24T06:50:07.816Z,100.00
2022-10-24T06:52:35.481Z,100.00
2022-10-24T06:55:03.221Z,100.00
2022-10-24T06:57:30.848Z,100.00
2022-10-24T06:59:59.002Z,100.00
2022-10-24T07:02:26.881Z,100.00
2022-10-24T07:04:54.595Z,100.00
2022-10-24T07:07:23.361Z,100.00
2022-10-24T07:09:58.765Z,100.00
2022-10-24T07:12:26.817Z,100.00
2022-10-24T07:14:54.538Z,100.00
2022-10-24T07:17:22.261Z,100.00
2022-10-24T07:19:54.989Z,100.00
2022-10-24T07:22:23.173Z,100.00
2022-10-24T07:24:57.560Z,100.00
2022-10-24T07:27:25.255Z,100.00
2022-10-24T07:29:53.276Z,100.00
2022-10-24T07:32:21.931Z,100.00
2022-10-24T07:34:49.608Z,100.00
2022-10-24T07:37:18.569Z,100.00
2022-10-24T07:39:47.865Z,100.00
2022-10-24T07:42:16.622Z,100.00
2022-10-24T07:44:44.254Z,100.00
2022-10-24T07:47:13.176Z,100.00
2022-10-24T07:49:40.869Z,100.00
2022-10-24T07:52:08.573Z,100.00
2022-10-24T07:54:37.445Z,100.00
2022-10-24T07:57:05.740Z,100.00
2022-10-24T07:59:48.780Z,100.00
2022-10-24T08:02:17.587Z,100.00
2022-10-24T08:04:45.487Z,100.00
2022-10-24T08:07:14.300Z,100.00
2022-10-24T08:09:43.573Z,100.00
2022-10-24T08:12:11.752Z,100.00
2022-10-24T08:14:41.828Z,100.00
2022-10-24T08:17:09.901Z,100.00
2022-10-24T08:19:39.516Z,100.00
2022-10-24T08:22:10.449Z,100.00
2022-10-24T08:24:38.266Z,100.00
2022-10-24T08:27:05.878Z,100.00
2022-10-24T08:29:33.578Z,100.00
2022-10-24T08:32:01.311Z,100.00
2022-10-24T08:34:29.003Z,100.00
2022-10-24T08:36:56.672Z,100.00
2022-10-24T08:39:24.289Z,100.00
2022-10-24T08:42:00.174Z,100.00
2022-10-24T08:44:30.838Z,100.00
2022-10-24T08:47:11.047Z,100.00
2022-10-24T08:50:02.126Z,100.00
2022-10-24T08:52:41.976Z,100.00
2022-10-24T08:55:48.891Z,100.00
2022-10-24T08:58:27.532Z,100.00
2022-10-24T09:01:00.319Z,100.00
2022-10-24T09:03:57.798Z,100.00
2022-10-24T09:06:28.417Z,100.00
2022-10-24T09:09:20.670Z,100.00
2022-10-24T09:11:57.536Z,100.00
2022-10-24T09:14:34.073Z,100.00
2022-10-24T09:17:12.115Z,100.00
2022-10-24T09:19:40.679Z,100.00
2022-10-24T09:22:12.460Z,100.00
2022-10-24T09:24:39.973Z,100.00
2022-10-24T09:27:17.126Z,100.00
2022-10-24T09:29:45.361Z,100.00
2022-10-24T09:32:19.251Z,100.00
2022-10-24T09:34:47.443Z,100.00
2022-10-24T09:37:44.331Z,100.00
2022-10-24T09:40:27.958Z,100.00
2022-10-24T09:43:01.489Z,100.00
2022-10-24T09:45:29.022Z,100.00
2022-10-24T09:48:03.216Z,100.00
2022-10-24T09:50:35.622Z,100.00
2022-10-24T09:53:05.314Z,100.00
2022-10-24T09:55:33.075Z,100.00
2022-10-24T09:58:05.149Z,100.00
2022-10-24T10:00:37.594Z,100.00
2022-10-24T10:03:23.966Z,100.00
2022-10-24T10:05:55.544Z,100.00
2022-10-24T10:08:34.471Z,100.00
2022-10-24T10:11:06.501Z,100.00
2022-10-24T10:13:46.892Z,100.00
2022-10-24T10:16:22.937Z,100.00
2022-10-24T10:18:50.769Z,100.00
2022-10-24T10:21:21.162Z,100.00
2022-10-24T10:23:54.966Z,100.00
2022-10-24T10:26:52.660Z,100.00
2022-10-24T10:29:20.333Z,100.00
2022-10-24T10:31:51.521Z,100.00
2022-10-24T10:34:40.206Z,100.00
2022-10-24T10:37:39.832Z,100.00
2022-10-24T10:40:33.531Z,100.00
2022-10-24T10:43:17.965Z,100.00
2022-10-24T10:45:59.090Z,100.00
2022-10-24T10:48:33.996Z,100.00
2022-10-24T10:51:43.504Z,100.00
2022-10-24T10:54:28.983Z,100.00
2022-10-24T10:57:04.151Z,100.00
2022-10-24T10:59:31.774Z,100.00
2022-10-24T11:02:16.112Z,100.00
2022-10-24T11:05:11.627Z,100.00
2022-10-24T11:07:46.798Z,100.00
2022-10-24T11:10:21.841Z,100.00
2022-10-24T11:12:50.042Z,100.00
2022-10-24T11:15:22.608Z,100.00
2022-10-24T11:17:59.566Z,100.00
2022-10-24T11:20:56.391Z,100.00
2022-10-24T11:26:27.994Z,100.00
2022-10-24T11:29:00.227Z,100.00
2022-10-24T11:31:49.499Z,100.00
2022-10-24T11:34:26.922Z,100.00
2022-10-24T11:37:13.912Z,100.00
2022-10-24T11:40:11.592Z,100.00
2022-10-24T11:42:58.332Z,100.00
2022-10-24T11:45:34.446Z,100.00
2022-10-24T11:48:20.439Z,100.00
2022-10-24T11:50:55.053Z,100.00
2022-10-24T11:53:34.669Z,100.00
2022-10-24T11:56:13.504Z,100.00
2022-10-24T11:58:54.890Z,100.00
2022-10-24T12:01:52.551Z,100.00
2022-10-24T12:05:01.657Z,100.00
2022-10-24T12:07:48.941Z,100.00
2022-10-24T12:10:30.916Z,100.00
2022-10-24T12:13:23.494Z,100.00
2022-10-24T12:16:15.019Z,100.00
2022-10-24T12:18:47.217Z,100.00
2022-10-24T12:21:25.738Z,100.00
2022-10-24T12:24:00.014Z,100.00
2022-10-24T12:26:33.084Z,100.00
2022-10-24T12:29:07.167Z,100.00
2022-10-24T12:31:37.931Z,100.00
2022-10-24T12:34:20.428Z,100.00
2022-10-24T12:37:10.672Z,100.00
2022-10-24T12:39:56.199Z,100.00
2022-10-24T12:42:26.052Z,100.00
2022-10-24T12:45:02.798Z,100.00
2022-10-24T12:47:36.483Z,100.00
2022-10-24T12:50:22.746Z,100.00
2022-10-24T12:53:18.014Z,100.00
2022-10-24T12:55:45.562Z,100.00
2022-10-24T12:58:35.437Z,100.00
2022-10-24T13:01:12.568Z,100.00
2022-10-24T13:03:54.615Z,100.00
2022-10-24T13:06:46.162Z,100.00
2022-10-24T13:09:28.012Z,100.00
2022-10-24T13:12:23.070Z,100.00
2022-10-24T13:15:15.003Z,100.00
2022-10-24T13:17:45.857Z,99.64
2022-10-24T13:20:22.507Z,99.72
2022-10-24T13:22:52.087Z,99.51
2022-10-24T13:25:34.734Z,99.63
2022-10-24T13:28:23.593Z,99.51
2022-10-24T13:30:57.439Z,99.45
2022-10-24T13:33:34.417Z,99.77
2022-10-24T13:36:11.030Z,99.90
2022-10-24T13:38:47.496Z,99.64
2022-10-24T13:41:40.046Z,99.81
2022-10-24T13:44:22.966Z,99.54
2022-10-24T13:46:56.956Z,99.70
2022-10-24T13:50:03.685Z,99.73
2022-10-24T13:52:31.546Z,99.03
2022-10-24T13:55:15.386Z,98.85
2022-10-24T13:57:57.083Z,98.70
2022-10-24T14:00:28.681Z,97.88
2022-10-24T14:03:01.030Z,98.09
2022-10-24T14:05:52.512Z,97.95
2022-10-24T14:08:34.644Z,97.45
2022-10-24T14:11:07.742Z,97.41
2022-10-24T14:13:40.021Z,97.19
2022-10-24T14:16:08.838Z,97.08
2022-10-24T14:18:39.165Z,96.92
2022-10-24T14:21:07.051Z,96.81
2022-10-24T14:23:42.096Z,96.18
2022-10-24T14:26:20.002Z,96.27
2022-10-24T14:28:58.688Z,96.40
2022-10-24T14:31:32.185Z,95.99
2022-10-24T14:34:00.011Z,95.93
2022-10-24T14:36:33.189Z,96.26
2022-10-24T14:39:02.106Z,96.21
2022-10-24T14:41:33.144Z,96.31
2022-10-24T14:44:02.160Z,96.44
2022-10-24T14:46:37.643Z,96.53
2022-10-24T14:49:27.590Z,96.63
2022-10-24T14:51:59.107Z,95.96
2022-10-24T14:54:33.060Z,96.61
2022-10-24T14:57:02.097Z,96.99
2022-10-24T14:59:36.270Z,96.87
2022-10-24T15:02:15.421Z,97.06
2022-10-24T15:04:48.603Z,97.09
2022-10-24T15:07:29.934Z,97.04
2022-10-24T15:10:04.267Z,97.16
2022-10-24T15:12:40.518Z,97.22
2022-10-24T15:15:48.401Z,95.74
2022-10-24T15:18:23.387Z,96.46
2022-10-24T15:20:54.649Z,96.65
2022-10-24T15:23:27.573Z,96.17
2022-10-24T15:25:59.963Z,95.70
2022-10-24T15:28:45.509Z,95.82
2022-10-24T15:31:15.885Z,95.85
2022-10-24T15:33:43.813Z,95.68
2022-10-24T15:36:29.534Z,95.90
2022-10-24T15:39:02.559Z,95.38
2022-10-24T15:41:30.238Z,95.54
2022-10-24T15:43:58.625Z,95.74
2022-10-24T15:46:27.406Z,95.69
2022-10-24T15:48:55.553Z,95.57
2022-10-24T15:51:25.927Z,95.74
2022-10-24T15:53:54.889Z,95.84
2022-10-24T15:56:22.648Z,95.78
2022-10-24T15:58:51.995Z,95.71
2022-10-24T16:01:26.612Z,95.33
2022-10-24T16:03:55.164Z,94.46
2022-10-24T16:06:23.350Z,94.73
2022-10-24T16:08:51.183Z,94.71
2022-10-24T16:11:19.714Z,94.75
2022-10-24T16:13:47.830Z,94.32
2022-10-24T16:16:15.819Z,94.30
2022-10-24T16:18:43.635Z,94.70
2022-10-24T16:21:21.243Z,94.96
2022-10-24T16:26:22.466Z,95.09
2022-10-24T16:28:50.142Z,95.45
2022-10-24T16:31:24.732Z,95.80
2022-10-24T16:33:53.469Z,96.02
2022-10-24T16:36:24.564Z,96.28
2022-10-24T16:38:53.390Z,96.22
2022-10-24T16:41:25.921Z,96.22
2022-10-24T16:43:58.363Z,96.36
2022-10-24T16:46:28.254Z,96.47
2022-10-24T16:48:56.563Z,96.68
2022-10-24T16:51:28.501Z,96.60
2022-10-24T16:53:56.105Z,96.34
2022-10-24T16:56:23.726Z,96.37
2022-10-24T16:58:51.490Z,96.45
2022-10-24T17:01:19.474Z,96.48
2022-10-24T17:03:47.188Z,96.68
2022-10-24T17:06:15.607Z,96.56
2022-10-24T17:08:43.386Z,96.62
2022-10-24T17:11:39.583Z,96.86
2022-10-24T17:14:00.410Z,96.71
2022-10-24T17:16:28.422Z,96.73
2022-10-24T17:19:12.151Z,96.58
2022-10-24T17:21:42.905Z,96.39
2022-10-24T17:24:12.667Z,96.52
2022-10-24T17:26:41.237Z,96.58
2022-10-24T17:29:12.074Z,96.49
2022-10-24T17:31:39.807Z,96.60
2022-10-24T17:34:07.893Z,96.73
2022-10-24T17:36:39.509Z,96.67
2022-10-24T17:39:10.667Z,96.74
2022-10-24T17:41:42.393Z,96.85
2022-10-24T17:44:17.772Z,97.09
2022-10-24T17:46:46.569Z,97.21
2022-10-24T17:49:21.580Z,97.63
2022-10-24T17:51:49.664Z,97.67
2022-10-24T17:54:17.849Z,97.78
2022-10-24T17:56:45.510Z,97.82
2022-10-24T17:59:13.305Z,97.88
2022-10-24T18:01:41.189Z,98.02
2022-10-24T18:04:09.150Z,97.74
2022-10-24T18:06:40.639Z,98.04
2022-10-24T18:09:10.652Z,98.27
2022-10-24T18:11:38.419Z,98.47
2022-10-24T18:14:06.064Z,98.54
2022-10-24T18:16:33.722Z,98.64
2022-10-24T18:19:01.351Z,98.80
2022-10-24T18:21:29.533Z,99.04
2022-10-24T18:23:57.993Z,98.97
2022-10-24T18:26:27.798Z,99.26
2022-10-24T18:28:56.298Z,99.57
2022-10-24T18:31:27.028Z,99.76
2022-10-24T18:33:55.432Z,99.97
2022-10-24T18:36:26.658Z,99.91
2022-10-24T18:38:59.638Z,100.00
2022-10-24T18:41:30.449Z,99.95
2022-10-24T18:44:00.586Z,100.00
2022-10-24T18:46:29.578Z,100.00
2022-10-24T18:48:57.526Z,100.00
2022-10-24T18:51:46.731Z,100.00
2022-10-24T18:54:20.484Z,100.00
2022-10-24T18:56:48.974Z,100.00
2022-10-24T18:59:20.379Z,100.00
2022-10-24T19:02:17.200Z,100.00
2022-10-24T19:04:47.467Z,100.00
2022-10-24T19:07:15.190Z,100.00
2022-10-24T19:09:43.587Z,100.00
2022-10-24T19:12:11.454Z,100.00
2022-10-24T19:14:39.310Z,100.00
2022-10-24T19:17:07.078Z,100.00
2022-10-24T19:19:38.063Z,100.00
2022-10-24T19:22:05.743Z,100.00
2022-10-24T19:24:33.892Z,100.00
2022-10-24T19:27:01.576Z,100.00
2022-10-24T19:29:29.264Z,100.00
2022-10-24T19:31:56.886Z,100.00
2022-10-24T19:34:24.595Z,100.00
2022-10-24T19:36:52.323Z,100.00
2022-10-24T19:39:20.147Z,100.00
2022-10-24T19:41:47.881Z,100.00
2022-10-24T19:44:16.083Z,100.00
2022-10-24T19:46:43.741Z,100.00
2022-10-24T19:49:11.470Z,100.00
2022-10-24T19:51:39.127Z,100.00
2022-10-24T19:54:06.947Z,100.00
2022-10-24T19:56:34.613Z,100.00
2022-10-24T19:59:02.302Z,100.00
2022-10-24T20:01:31.256Z,100.00
2022-10-24T20:04:01.514Z,100.00
2022-10-24T20:06:29.198Z,100.00
2022-10-24T20:08:56.840Z,100.00
2022-10-24T20:11:24.709Z,100.00
2022-10-24T20:13:52.491Z,100.00
2022-10-24T20:16:20.781Z,100.00
2022-10-24T20:18:49.111Z,100.00
2022-10-24T20:21:18.991Z,100.00
2022-10-24T20:23:50.187Z,100.00
2022-10-24T20:26:21.426Z,100.00
2022-10-24T20:28:51.961Z,100.00
2022-10-24T20:31:29.155Z,100.00
2022-10-24T20:34:06.690Z,100.00
2022-10-24T20:36:35.723Z,100.00
2022-10-24T20:39:03.674Z,100.00
2022-10-24T20:41:31.410Z,100.00
2022-10-24T20:43:59.111Z,100.00
2022-10-24T20:46:26.793Z,100.00
2022-10-24T20:48:57.195Z,100.00
2022-10-24T20:51:25.279Z,100.00
2022-10-24T20:53:53.106Z,100.00
2022-10-24T20:56:23.573Z,100.00
2022-10-24T20:58:52.760Z,100.00
2022-10-24T21:01:25.701Z,100.00
2022-10-24T21:03:54.152Z,100.00
2022-10-24T21:06:30.703Z,100.00
2022-10-24T21:09:01.041Z,100.00
2022-10-24T21:11:30.960Z,100.00
2022-10-24T21:14:19.037Z,100.00
2022-10-24T21:16:46.774Z,100.00
2022-10-24T21:19:14.747Z,100.00
2022-10-24T21:21:42.561Z,100.00
2022-10-24T21:24:15.977Z,100.00
2022-10-24T21:26:43.712Z,100.00
2022-10-24T21:31:59.209Z,100.00
2022-10-24T21:34:30.085Z,100.00
2022-10-24T21:37:00.944Z,100.00
2022-10-24T21:39:28.674Z,100.00
2022-10-24T21:41:56.297Z,100.00
2022-10-24T21:44:26.727Z,100.00
2022-10-24T21:46:55.514Z,100.00
2022-10-24T21:49:24.393Z,100.00
2022-10-24T21:51:52.438Z,100.00
2022-10-24T21:54:22.603Z,100.00
2022-10-24T21:56:50.468Z,100.00
2022-10-24T21:59:20.393Z,100.00
2022-10-24T22:01:50.151Z,100.00
2022-10-24T22:04:19.325Z,100.00
2022-10-24T22:06:47.308Z,100.00
2022-10-24T22:09:27.250Z,100.00
2022-10-24T22:11:58.697Z,100.00
2022-10-24T22:14:26.642Z,100.00
2022-10-24T22:16:54.281Z,100.00
2022-10-24T22:19:21.930Z,100.00
2022-10-24T22:21:51.733Z,100.00
2022-10-24T22:24:24.445Z,100.00
2022-10-24T22:26:53.237Z,100.00
2022-10-24T22:29:23.823Z,100.00
2022-10-24T22:31:53.434Z,100.00
2022-10-24T22:34:23.881Z,100.00
2022-10-24T22:37:28.735Z,100.00
2022-10-24T22:39:56.663Z,100.00
2022-10-24T22:42:24.462Z,100.00
2022-10-24T22:44:52.520Z,100.00
2022-10-24T22:47:53.279Z,100.00
2022-10-24T22:50:36.125Z,100.00
2022-10-24T22:53:04.217Z,100.00
2022-10-24T22:55:38.667Z,100.00
2022-10-24T22:58:06.468Z,100.00
2022-10-24T23:00:34.371Z,100.00
2022-10-24T23:03:18.414Z,100.00
2022-10-24T23:08:37.258Z,100.00
2022-10-24T23:11:05.550Z,100.00
2022-10-24T23:13:33.768Z,100.00
2022-10-24T23:16:19.735Z,100.00
2022-10-24T23:18:47.665Z,100.00
2022-10-24T23:21:46.541Z,100.00
2022-10-24T23:24:17.250Z,100.00
2022-10-24T23:27:11.367Z,100.00
2022-10-24T23:29:46.544Z,100.00
2022-10-24T23:32:29.425Z,100.00
2022-10-24T23:34:58.833Z,100.00
2022-10-24T23:37:37.566Z,100.00
2022-10-24T23:40:18.479Z,100.00
2022-10-24T23:42:46.824Z,100.00
2022-10-24T23:45:20.001Z,100.00
2022-10-24T23:47:59.473Z,100.00
2022-10-24T23:50:52.912Z,100.00
2022-10-24T23:53:39.114Z,100.00
2022-10-24T23:56:07.241Z,100.00
2022-10-24T23:58:34.843Z,100.00
